Time;durP1;ratioP1;P1;durP2;ratioP2;P2;SDS_P1;SDS_P2;PMS_P1;PMS_P2;Temp;Humidity;BMP_temperature;BMP_pressure;BME280_temperature;BME280_humidity;BME280_pressure;Samples;Min_cycle;Max_cycle;Signal;HPM_P1;HPM_P2
2022/12/24 00:01:22;;;;;;;33.88;17.90;;;6.50;99.90;;;;;;5053691;28;20032;-61
2022/12/24 00:03:48;;;;;;;40.10;20.20;;;6.60;99.90;;;;;;5036300;28;20044;-61
2022/12/24 00:06:22;;;;;;;40.72;20.90;;;6.50;99.90;;;;;;5053226;28;20040;-62
2022/12/24 00:08:50;;;;;;;34.15;18.65;;;6.60;99.90;;;;;;5052810;28;20090;-62
2022/12/24 00:11:16;;;;;;;36.55;17.60;;;6.60;99.90;;;;;;5071484;28;20044;-61
2022/12/24 00:13:42;;;;;;;40.80;21.70;;;6.50;99.90;;;;;;5071411;28;20045;-61
2022/12/24 00:16:07;;;;;;;36.75;19.10;;;6.60;99.90;;;;;;5052938;28;20051;-62
2022/12/24 00:18:33;;;;;;;38.35;18.95;;;6.60;99.90;;;;;;5053630;28;20538;-61
2022/12/24 00:21:00;;;;;;;40.20;21.02;;;6.60;99.90;;;;;;5071246;28;20501;-62
2022/12/24 00:23:26;;;;;;;39.45;21.23;;;6.50;99.90;;;;;;5035823;28;20067;-61
2022/12/24 00:25:52;;;;;;;34.92;18.25;;;6.50;99.90;;;;;;5053302;28;20056;-61
2022/12/24 00:28:17;;;;;;;34.72;19.00;;;6.50;99.90;;;;;;5053288;28;20110;-61
2022/12/24 00:30:43;;;;;;;39.75;20.25;;;6.50;99.90;;;;;;5070487;28;20094;-61
2022/12/24 00:33:09;;;;;;;34.65;19.27;;;6.50;99.90;;;;;;5054790;28;20513;-62
2022/12/24 00:35:36;;;;;;;38.78;20.55;;;6.60;99.90;;;;;;5057401;28;20042;-62
2022/12/24 00:38:02;;;;;;;42.85;21.08;;;6.50;99.90;;;;;;5056087;28;20063;-61
2022/12/24 00:40:29;;;;;;;36.03;19.92;;;6.50;99.90;;;;;;5074788;28;20040;-61
2022/12/24 00:42:55;;;;;;;36.42;19.00;;;6.60;99.90;;;;;;5056911;28;20538;-61
2022/12/24 00:45:21;;;;;;;37.80;19.23;;;6.50;99.90;;;;;;5055789;28;20508;-61
2022/12/24 00:47:47;;;;;;;38.47;18.85;;;6.50;99.90;;;;;;5074544;28;20049;-61
2022/12/24 00:50:13;;;;;;;36.60;19.60;;;6.50;99.90;;;;;;5056549;28;20036;-62
2022/12/24 00:52:39;;;;;;;43.35;22.00;;;6.50;99.90;;;;;;5055954;28;20041;-61
2022/12/24 00:55:05;;;;;;;41.97;20.00;;;6.50;99.90;;;;;;5074331;28;20067;-61
2022/12/24 00:57:31;;;;;;;37.85;19.02;;;6.50;99.90;;;;;;5056598;28;20033;-62
2022/12/24 00:59:56;;;;;;;39.22;19.75;;;6.60;99.90;;;;;;5055590;28;20060;-61
2022/12/24 01:02:22;;;;;;;39.38;19.75;;;6.60;99.90;;;;;;5039732;28;20045;-62
2022/12/24 01:07:32;;;;;;;41.72;19.75;;;6.50;99.90;;;;;;5074496;28;20043;-61
2022/12/24 01:09:58;;;;;;;44.65;22.13;;;6.60;99.90;;;;;;5056192;28;20502;-61
2022/12/24 01:12:24;;;;;;;47.08;23.13;;;6.60;99.90;;;;;;5055535;28;20101;-61
2022/12/24 01:14:50;;;;;;;44.15;22.13;;;6.60;99.90;;;;;;5039827;28;20044;-62
2022/12/24 01:17:16;;;;;;;43.05;22.02;;;6.50;99.90;;;;;;5056309;28;20397;-61
2022/12/24 01:19:41;;;;;;;47.08;22.88;;;6.50;99.90;;;;;;5073241;28;20542;-62
2022/12/24 01:22:07;;;;;;;33.15;19.98;;;6.60;99.90;;;;;;5056076;28;20123;-61
2022/12/24 01:24:33;;;;;;;32.72;18.90;;;6.50;99.90;;;;;;5074120;28;20047;-62
2022/12/24 01:26:59;;;;;;;44.17;22.52;;;6.50;99.90;;;;;;5055077;28;20079;-62
2022/12/24 01:29:24;;;;;;;51.90;24.33;;;6.50;99.90;;;;;;5039292;28;20401;-62
2022/12/24 01:31:50;;;;;;;49.33;23.45;;;6.50;99.90;;;;;;5055947;28;20045;-62
2022/12/24 01:34:15;;;;;;;45.30;24.08;;;6.60;99.90;;;;;;5072921;28;20040;-61
2022/12/24 01:36:41;;;;;;;34.90;20.13;;;6.60;99.90;;;;;;5055776;28;20123;-61
2022/12/24 01:39:07;;;;;;;43.13;24.27;;;6.60;99.90;;;;;;5073726;28;20120;-62
2022/12/24 01:44:19;;;;;;;62.75;25.55;;;6.60;99.90;;;;;;5055503;28;20054;-61
2022/12/24 01:46:47;;;;;;;56.10;24.75;;;6.60;99.90;;;;;;5055211;28;20531;-62
2022/12/24 01:49:14;;;;;;;56.30;26.52;;;6.60;99.90;;;;;;5072654;28;20086;-62
2022/12/24 01:51:47;;;;;;;84.75;31.33;;;6.60;99.90;;;;;;5055684;28;20040;-61
2022/12/24 01:54:37;;;;;;;76.63;30.70;;;6.60;99.90;;;;;;5072479;28;20058;-62
2022/12/24 01:57:24;;;;;;;41.22;22.02;;;6.60;99.90;;;;;;5055410;28;20032;-62
2022/12/24 01:59:54;;;;;;;35.85;20.85;;;6.60;99.90;;;;;;5055323;28;20054;-62
2022/12/24 02:02:21;;;;;;;53.80;26.10;;;6.60;99.90;;;;;;5054218;28;20481;-62
2022/12/24 02:05:20;;;;;;;37.33;21.75;;;6.60;99.90;;;;;;5055146;28;20087;-62
2022/12/24 02:07:46;;;;;;;54.60;22.75;;;6.60;99.90;;;;;;4987278;28;20098;-61
2022/12/24 02:10:13;;;;;;;46.00;22.63;;;6.60;99.90;;;;;;5072133;28;20052;-61
2022/12/24 02:12:40;;;;;;;48.10;25.05;;;6.50;99.90;;;;;;5055461;28;20040;-61
2022/12/24 02:15:09;;;;;;;54.35;25.08;;;6.60;99.90;;;;;;5072717;28;20044;-61
2022/12/24 02:17:50;;;;;;;71.55;25.85;;;6.60;99.90;;;;;;5054644;28;20416;-61
2022/12/24 02:20:34;;;;;;;50.95;25.02;;;6.60;99.90;;;;;;5072932;28;20036;-62
2022/12/24 02:23:14;;;;;;;63.28;27.15;;;6.60;99.90;;;;;;5054002;28;20040;-61
2022/12/24 02:26:07;;;;;;;39.65;21.55;;;6.60;99.90;;;;;;5054782;28;20041;-61
2022/12/24 02:28:48;;;;;;;40.55;22.05;;;6.70;99.90;;;;;;5054967;28;20052;-61
2022/12/24 02:31:26;;;;;;;51.88;25.88;;;6.70;99.90;;;;;;5053689;28;20508;-61
2022/12/24 02:33:54;;;;;;;54.85;26.73;;;6.70;99.90;;;;;;5072512;28;20402;-61
2022/12/24 02:36:48;;;;;;;42.67;22.25;;;6.70;99.90;;;;;;5054121;28;20393;-62
2022/12/24 02:39:22;;;;;;;37.67;21.88;;;6.70;99.90;;;;;;5062241;28;20048;-61
2022/12/24 02:42:04;;;;;;;43.40;23.23;;;6.70;99.90;;;;;;5072468;28;20145;-62
2022/12/24 02:44:34;;;;;;;61.92;24.30;;;6.70;99.90;;;;;;5053784;28;20512;-61
2022/12/24 02:47:01;;;;;;;42.83;22.88;;;6.80;99.90;;;;;;5054239;28;20046;-61
2022/12/24 02:49:27;;;;;;;63.95;28.00;;;6.80;99.90;;;;;;5054713;28;20059;-61
2022/12/24 02:51:53;;;;;;;38.08;22.50;;;6.80;99.90;;;;;;5053577;28;20504;-61
2022/12/24 02:54:18;;;;;;;50.33;24.80;;;6.90;99.90;;;;;;5054189;28;20409;-61
2022/12/24 02:57:22;;;;;;;41.13;20.15;;;6.80;99.90;;;;;;5071800;28;20428;-61
2022/12/24 03:00:20;;;;;;;30.80;18.13;;;6.90;99.90;;;;;;5072252;28;20424;-61
2022/12/24 03:03:27;;;;;;;34.75;19.52;;;6.90;99.90;;;;;;4999960;28;20044;-61
2022/12/24 03:06:28;;;;;;;32.65;19.95;;;7.00;99.90;;;;;;4954462;28;20043;-61
2022/12/24 03:09:12;;;;;;;29.55;17.50;;;7.10;99.90;;;;;;4966442;28;20054;-62
2022/12/24 03:12:02;;;;;;;28.55;17.63;;;7.10;99.90;;;;;;5036388;28;20048;-62
2022/12/24 03:14:29;;;;;;;25.40;16.17;;;7.20;99.90;;;;;;5071939;28;20046;-61
2022/12/24 03:16:57;;;;;;;25.17;15.27;;;7.30;99.90;;;;;;5072116;28;20405;-61
2022/12/24 03:19:24;;;;;;;25.08;14.43;;;7.30;99.90;;;;;;5053152;28;20124;-61
2022/12/24 03:21:53;;;;;;;26.90;15.80;;;7.40;99.90;;;;;;5053943;28;20047;-61
2022/12/24 03:24:19;;;;;;;34.38;18.58;;;7.50;99.90;;;;;;5071849;28;20045;-61
2022/12/24 03:26:45;;;;;;;32.60;14.35;;;7.50;99.90;;;;;;5071012;28;20053;-62
2022/12/24 03:29:12;;;;;;;25.10;12.88;;;7.50;99.90;;;;;;5053724;28;20048;-62
2022/12/24 03:31:42;;;;;;;21.00;10.35;;;7.50;99.90;;;;;;5054330;28;20466;-62
2022/12/24 03:34:09;;;;;;;19.48;10.07;;;7.50;99.90;;;;;;5052991;28;20094;-62
2022/12/24 03:36:35;;;;;;;19.70;9.02;;;7.50;99.90;;;;;;5054068;28;20041;-62
2022/12/24 03:39:00;;;;;;;19.88;10.32;;;7.50;99.90;;;;;;5071859;28;20037;-62
2022/12/24 03:41:26;;;;;;;19.77;12.48;;;7.60;99.90;;;;;;5071104;28;20044;-61
2022/12/24 03:43:52;;;;;;;21.77;11.77;;;7.60;99.90;;;;;;5053589;28;20112;-62
2022/12/24 03:46:17;;;;;;;19.45;8.30;;;7.60;99.90;;;;;;5071732;28;20190;-61
2022/12/24 03:48:43;;;;;;;17.38;7.50;;;7.60;99.90;;;;;;5070762;28;20033;-61
2022/12/24 03:51:17;;;;;;;18.77;5.75;;;7.70;99.90;;;;;;5071525;28;20448;-61
2022/12/24 03:53:43;;;;;;;16.35;6.78;;;7.70;99.90;;;;;;5070961;28;20162;-62
2022/12/24 03:56:09;;;;;;;14.68;6.88;;;7.80;99.90;;;;;;5036958;28;20134;-61
2022/12/24 03:58:35;;;;;;;15.05;6.90;;;7.80;99.90;;;;;;5053714;28;20152;-61
2022/12/24 04:01:00;;;;;;;18.27;7.97;;;7.90;99.90;;;;;;5053066;28;20041;-61
2022/12/24 04:03:26;;;;;;;17.02;8.25;;;7.90;99.90;;;;;;5053558;28;20051;-61
2022/12/24 04:06:07;;;;;;;21.13;8.20;;;8.00;99.90;;;;;;5053558;28;20086;-61
2022/12/24 04:08:33;;;;;;;18.23;7.60;;;8.00;99.90;;;;;;5055281;28;20044;-61
2022/12/24 04:10:59;;;;;;;21.73;8.57;;;8.00;99.90;;;;;;5075423;28;20036;-61
2022/12/24 04:13:25;;;;;;;20.55;8.32;;;8.10;99.90;;;;;;5057221;28;20040;-61
2022/12/24 04:16:06;;;;;;;26.05;7.53;;;8.00;99.90;;;;;;5056663;28;20110;-61
2022/12/24 04:18:32;;;;;;;22.35;7.68;;;8.10;99.90;;;;;;5057452;28;20083;-61
2022/12/24 04:20:58;;;;;;;20.98;8.82;;;8.10;99.90;;;;;;5057100;28;20462;-62
2022/12/24 04:23:24;;;;;;;23.15;8.43;;;8.10;99.90;;;;;;5074133;28;20071;-61
2022/12/24 04:25:49;;;;;;;24.42;7.40;;;8.10;99.90;;;;;;5056745;28;20131;-61
2022/12/24 04:28:15;;;;;;;27.88;8.13;;;8.20;99.90;;;;;;5040546;28;20040;-61
2022/12/24 04:30:42;;;;;;;22.00;8.25;;;8.20;99.90;;;;;;5056418;28;20462;-61
2022/12/24 04:33:08;;;;;;;20.42;7.38;;;8.10;99.90;;;;;;5056833;28;20116;-61
2022/12/24 04:35:37;;;;;;;26.83;9.10;;;8.00;99.90;;;;;;5075206;28;20151;-61
2022/12/24 04:38:03;;;;;;;28.05;7.10;;;8.00;99.90;;;;;;5056141;28;20046;-61
2022/12/24 04:40:34;;;;;;;27.27;7.30;;;8.00;99.90;;;;;;5056866;28;20119;-61
2022/12/24 04:42:59;;;;;;;27.52;7.00;;;8.00;99.90;;;;;;5055877;28;20040;-61
2022/12/24 04:45:25;;;;;;;28.15;8.35;;;8.10;99.90;;;;;;5056696;28;20054;-61
2022/12/24 04:47:51;;;;;;;26.88;10.18;;;8.00;99.90;;;;;;5056784;28;20072;-62
2022/12/24 04:50:17;;;;;;;27.20;7.75;;;8.00;99.90;;;;;;5055790;28;20048;-62
2022/12/24 04:52:42;;;;;;;34.58;7.95;;;8.10;99.90;;;;;;5056451;28;20053;-62
2022/12/24 04:55:08;;;;;;;24.90;6.72;;;8.10;99.90;;;;;;5056643;28;20033;-62
2022/12/24 04:57:36;;;;;;;32.22;7.93;;;8.10;99.90;;;;;;5074059;28;20066;-61
2022/12/24 05:00:06;;;;;;;23.80;7.03;;;8.10;99.90;;;;;;5056456;28;20052;-61
2022/12/24 05:02:31;;;;;;;38.97;8.55;;;8.10;99.90;;;;;;5056853;28;20167;-61
2022/12/24 05:04:57;;;;;;;37.65;7.63;;;8.10;99.90;;;;;;5055891;28;20127;-62
2022/12/24 05:07:23;;;;;;;30.80;7.65;;;8.00;99.90;;;;;;5074212;28;20033;-62
2022/12/24 05:09:48;;;;;;;24.23;6.93;;;8.10;99.90;;;;;;5056059;28;20045;-61
2022/12/24 05:12:14;;;;;;;31.83;8.85;;;8.10;99.90;;;;;;5038847;28;20040;-61
2022/12/24 05:14:40;;;;;;;32.35;8.45;;;8.10;99.90;;;;;;5074385;28;20040;-62
2022/12/24 05:17:05;;;;;;;36.35;7.90;;;8.00;99.90;;;;;;5073797;28;20044;-62
2022/12/24 05:19:31;;;;;;;34.78;7.78;;;8.10;99.90;;;;;;5072966;28;20076;-62
2022/12/24 05:27:25;;;;;;;28.05;6.88;;;8.00;99.90;;;;;;5072917;28;20474;-62
2022/12/24 05:29:51;;;;;;;32.78;7.82;;;8.00;99.90;;;;;;5055910;28;20052;-61
2022/12/24 05:32:16;;;;;;;34.45;7.80;;;8.00;99.90;;;;;;5073096;28;20044;-61
2022/12/24 05:34:42;;;;;;;31.63;7.60;;;8.00;99.90;;;;;;5039126;28;20405;-62
2022/12/24 05:37:08;;;;;;;39.47;7.78;;;8.00;99.90;;;;;;5073631;28;20389;-62
2022/12/24 05:39:33;;;;;;;43.72;9.15;;;8.00;99.90;;;;;;5055147;28;20143;-62
2022/12/24 05:41:59;;;;;;;33.53;9.13;;;8.00;99.90;;;;;;5073785;28;20037;-61
2022/12/24 05:44:25;;;;;;;33.03;8.73;;;8.00;99.90;;;;;;5073684;28;20036;-61
2022/12/24 05:46:50;;;;;;;37.35;7.70;;;8.00;99.90;;;;;;5054943;28;20044;-61
2022/12/24 05:49:16;;;;;;;45.85;9.00;;;8.00;99.90;;;;;;5073352;28;20051;-61
2022/12/24 05:51:42;;;;;;;40.72;9.73;;;8.00;99.90;;;;;;5038830;28;20044;-61
2022/12/24 05:54:08;;;;;;;41.80;10.25;;;8.00;99.90;;;;;;5054548;28;20467;-62
2022/12/24 05:56:33;;;;;;;30.02;7.43;;;8.00;99.90;;;;;;5039105;28;20371;-61
2022/12/24 05:58:59;;;;;;;35.83;8.23;;;8.00;99.90;;;;;;5055610;28;20042;-61
2022/12/24 06:01:25;;;;;;;34.25;7.75;;;8.00;99.90;;;;;;5054515;28;20068;-61
2022/12/24 06:03:52;;;;;;;33.55;8.75;;;8.00;99.90;;;;;;5055236;28;20041;-61
2022/12/24 06:06:23;;;;;;;40.65;8.77;;;8.00;99.90;;;;;;5072873;28;20051;-61
2022/12/24 06:08:50;;;;;;;36.33;8.40;;;8.00;99.90;;;;;;5054351;28;20443;-61
2022/12/24 06:11:18;;;;;;;38.78;9.02;;;8.00;99.90;;;;;;5073108;28;20087;-60
2022/12/24 06:13:44;;;;;;;39.47;8.05;;;8.00;99.90;;;;;;5072999;28;20101;-61
2022/12/24 06:16:13;;;;;;;38.72;8.07;;;7.90;99.90;;;;;;5072184;28;20397;-61
2022/12/24 06:18:39;;;;;;;38.38;8.23;;;7.90;99.90;;;;;;5055343;28;20036;-61
2022/12/24 06:21:06;;;;;;;33.47;7.88;;;7.90;99.90;;;;;;5054476;28;20539;-61
2022/12/24 06:23:34;;;;;;;33.40;7.40;;;7.80;99.90;;;;;;5054365;28;20114;-61
2022/12/24 06:26:01;;;;;;;32.15;7.90;;;7.80;99.90;;;;;;5054800;28;20063;-61
2022/12/24 06:28:32;;;;;;;35.85;8.27;;;7.70;99.90;;;;;;5037512;28;20048;-61
2022/12/24 06:30:59;;;;;;;30.55;8.57;;;7.70;99.90;;;;;;5054194;28;20432;-61
2022/12/24 06:33:26;;;;;;;29.42;7.63;;;7.60;99.90;;;;;;5054551;28;20110;-61
2022/12/24 06:35:51;;;;;;;31.00;7.38;;;7.70;99.90;;;;;;5071481;28;20045;-61
2022/12/24 06:38:17;;;;;;;40.95;8.77;;;7.70;99.90;;;;;;5054331;28;20052;-61
2022/12/24 06:40:44;;;;;;;29.83;7.45;;;7.60;99.90;;;;;;5054419;28;20363;-61
2022/12/24 06:43:11;;;;;;;42.97;9.55;;;7.50;99.90;;;;;;5053766;28;20051;-61
2022/12/24 06:45:37;;;;;;;29.90;8.55;;;7.50;99.90;;;;;;5054794;28;20048;-61
2022/12/24 06:48:04;;;;;;;29.10;7.47;;;7.50;99.90;;;;;;5072308;28;20089;-61
2022/12/24 06:50:30;;;;;;;32.63;9.45;;;7.40;99.90;;;;;;5054067;28;20036;-61
2022/12/24 06:52:55;;;;;;;31.77;8.40;;;7.40;99.90;;;;;;5072153;28;20043;-61
2022/12/24 06:55:21;;;;;;;39.67;9.35;;;7.40;99.90;;;;;;5054370;28;20041;-61
2022/12/24 06:57:47;;;;;;;37.42;9.02;;;7.40;99.90;;;;;;5053544;28;20122;-61
2022/12/24 07:00:13;;;;;;;37.72;11.00;;;7.30;99.90;;;;;;5054315;28;20040;-61
2022/12/24 07:02:39;;;;;;;34.67;8.63;;;7.40;99.90;;;;;;5037818;28;20094;-61
2022/12/24 07:05:06;;;;;;;37.00;11.20;;;7.40;99.90;;;;;;5053302;28;20040;-61
2022/12/24 07:07:31;;;;;;;42.15;10.85;;;7.30;99.90;;;;;;5072500;28;20374;-61
2022/12/24 07:09:57;;;;;;;36.80;10.18;;;7.30;99.90;;;;;;5054097;28;20135;-61
2022/12/24 07:12:23;;;;;;;35.22;11.60;;;7.40;99.90;;;;;;5071310;28;20071;-61
2022/12/24 07:14:48;;;;;;;40.38;9.77;;;7.40;99.90;;;;;;5072016;28;20478;-61
2022/12/24 07:17:14;;;;;;;33.42;8.88;;;7.30;99.90;;;;;;5071897;28;20116;-61
2022/12/24 07:19:40;;;;;;;38.45;9.63;;;7.30;99.90;;;;;;5053597;28;20036;-61
2022/12/24 07:22:05;;;;;;;38.58;10.23;;;7.30;99.90;;;;;;5070614;28;20032;-61
2022/12/24 07:24:31;;;;;;;40.83;9.52;;;7.30;99.90;;;;;;5071366;28;20040;-62
2022/12/24 07:26:57;;;;;;;31.25;8.68;;;7.20;99.90;;;;;;5069785;28;20086;-62
2022/12/24 07:29:22;;;;;;;35.13;9.18;;;7.30;99.90;;;;;;5051375;28;20447;-61
2022/12/24 07:31:48;;;;;;;34.58;9.75;;;7.20;99.90;;;;;;5051051;28;20036;-62
2022/12/24 07:34:13;;;;;;;43.75;10.18;;;7.20;99.90;;;;;;5052748;28;20041;-62
2022/12/24 07:36:39;;;;;;;27.48;9.73;;;7.20;99.90;;;;;;5072360;28;20036;-63
2022/12/24 07:39:05;;;;;;;46.63;11.38;;;7.10;99.90;;;;;;5063527;28;20094;-62
2022/12/24 07:41:30;;;;;;;38.63;12.98;;;7.10;99.90;;;;;;5045966;28;20040;-62
2022/12/24 07:43:56;;;;;;;39.67;13.82;;;7.00;99.90;;;;;;5056937;28;20057;-61
2022/12/24 07:46:22;;;;;;;44.25;15.82;;;7.00;99.90;;;;;;5035083;28;20052;-62
2022/12/24 07:48:47;;;;;;;48.88;17.15;;;7.00;99.90;;;;;;5019405;28;20504;-62
2022/12/24 07:51:13;;;;;;;50.78;17.70;;;7.00;99.90;;;;;;5035063;28;20170;-62
2022/12/24 07:53:46;;;;;;;50.83;18.13;;;6.90;99.90;;;;;;5052922;28;20406;-62
2022/12/24 07:56:12;;;;;;;48.83;15.82;;;6.90;99.90;;;;;;5045158;28;20033;-62
2022/12/24 07:58:39;;;;;;;59.75;25.45;;;6.90;99.90;;;;;;5064737;28;20044;-63
2022/12/24 08:01:05;;;;;;;54.50;15.85;;;6.90;99.90;;;;;;5057215;28;20075;-63
2022/12/24 08:03:31;;;;;;;36.40;11.57;;;6.90;99.90;;;;;;5058459;28;20059;-62
2022/12/24 08:05:57;;;;;;;34.80;11.32;;;6.90;99.90;;;;;;5056599;28;20044;-62
2022/12/24 08:08:24;;;;;;;28.13;7.82;;;6.90;99.90;;;;;;5064884;28;20442;-61
2022/12/24 08:10:50;;;;;;;43.83;11.55;;;6.90;99.90;;;;;;5072699;28;20477;-62
2022/12/24 08:13:16;;;;;;;30.67;9.85;;;6.90;99.90;;;;;;5072974;28;20040;-61
2022/12/24 08:15:43;;;;;;;33.13;8.52;;;6.90;99.90;;;;;;5072034;28;20047;-61
2022/12/24 08:18:10;;;;;;;30.77;8.63;;;7.00;99.90;;;;;;5054831;28;20040;-61
2022/12/24 08:20:40;;;;;;;34.53;8.48;;;6.90;99.90;;;;;;5054755;28;20478;-61
2022/12/24 08:23:07;;;;;;;29.67;8.73;;;7.00;99.90;;;;;;5053844;28;20557;-61
2022/12/24 08:25:33;;;;;;;31.90;8.60;;;7.00;99.90;;;;;;5054510;28;20048;-61
2022/12/24 08:27:58;;;;;;;37.70;8.77;;;7.10;99.90;;;;;;5039662;28;20098;-61
2022/12/24 08:30:24;;;;;;;50.80;11.80;;;7.20;99.90;;;;;;5053990;28;20454;-61
2022/12/24 08:32:50;;;;;;;1139.97;211.02;;;7.30;99.90;;;;;;5054949;28;20048;-61
2022/12/24 08:35:16;;;;;;;714.88;136.27;;;7.40;99.90;;;;;;5053532;28;20045;-61
2022/12/24 08:37:42;;;;;;;39.15;11.35;;;7.40;99.90;;;;;;5053911;28;20044;-61
2022/12/24 08:40:08;;;;;;;67.65;15.20;;;7.40;99.90;;;;;;5071621;28;20078;-61
2022/12/24 08:42:33;;;;;;;1108.43;205.90;;;7.40;99.90;;;;;;5069115;28;20025;-61
2022/12/24 08:44:59;;;;;;;320.23;63.65;;;7.40;99.90;;;;;;5070894;28;20044;-61
2022/12/24 08:47:26;;;;;;;30.27;8.23;;;7.50;99.90;;;;;;5061193;28;20044;-61
2022/12/24 08:49:51;;;;;;;48.75;11.95;;;7.50;99.90;;;;;;5070778;28;20040;-61
2022/12/24 08:52:17;;;;;;;28.95;8.02;;;7.60;99.90;;;;;;5064622;28;20090;-61
2022/12/24 08:54:43;;;;;;;31.45;8.48;;;7.60;99.90;;;;;;5070589;28;20066;-61
2022/12/24 08:57:08;;;;;;;29.17;7.85;;;7.60;99.90;;;;;;5067928;28;20041;-61
2022/12/24 08:59:34;;;;;;;33.67;7.97;;;7.70;99.90;;;;;;5070798;28;20075;-61
2022/12/24 09:02:00;;;;;;;36.42;7.88;;;7.70;99.90;;;;;;5068916;28;20047;-61
2022/12/24 09:04:26;;;;;;;497.83;93.65;;;7.70;99.90;;;;;;5070001;28;20504;-61
2022/12/24 09:06:51;;;;;;;34.08;7.35;;;7.80;99.90;;;;;;5070448;28;20059;-61
2022/12/24 09:09:17;;;;;;;32.60;8.50;;;7.80;99.90;;;;;;5071041;28;20071;-61
2022/12/24 09:11:44;;;;;;;28.95;8.85;;;7.90;99.90;;;;;;5070399;28;20473;-61
2022/12/24 09:14:10;;;;;;;29.92;7.90;;;7.90;99.90;;;;;;5068115;28;20067;-62
2022/12/24 09:16:36;;;;;;;28.38;8.07;;;8.00;99.90;;;;;;5053336;28;20114;-61
2022/12/24 09:19:01;;;;;;;34.95;8.38;;;8.10;99.90;;;;;;5069590;28;20481;-61
2022/12/24 09:21:27;;;;;;;34.17;8.07;;;8.10;99.90;;;;;;5053432;28;20094;-61
2022/12/24 09:23:53;;;;;;;32.05;8.05;;;8.20;99.90;;;;;;5069697;28;20492;-61
2022/12/24 09:26:22;;;;;;;38.65;8.85;;;8.30;99.90;;;;;;5048861;28;20060;-61
2022/12/24 09:28:48;;;;;;;32.28;9.35;;;8.30;99.90;;;;;;5059413;28;20472;-61
2022/12/24 09:31:14;;;;;;;35.92;7.45;;;8.40;99.90;;;;;;5070453;28;20544;-62
2022/12/24 09:33:42;;;;;;;32.42;8.40;;;8.40;99.90;;;;;;5070613;28;20045;-61
2022/12/24 09:36:09;;;;;;;33.50;7.40;;;8.40;99.90;;;;;;5054312;28;20086;-62
2022/12/24 09:38:36;;;;;;;36.67;8.30;;;8.40;99.90;;;;;;5037395;28;20043;-61
2022/12/24 09:41:33;;;;;;;29.17;7.75;;;8.50;99.90;;;;;;5069217;28;20572;-61
2022/12/24 09:44:19;;;;;;;31.05;7.72;;;8.50;99.90;;;;;;5015482;28;20048;-61
2022/12/24 09:46:47;;;;;;;30.75;7.80;;;8.50;99.90;;;;;;5044408;28;20551;-61
2022/12/24 09:52:56;;;;;;;30.33;7.25;;;8.70;99.90;;;;;;5068650;28;20037;-61
2022/12/24 09:55:28;;;;;;;29.38;8.35;;;8.70;99.90;;;;;;5068342;28;20052;-61
2022/12/24 09:57:57;;;;;;;36.20;8.90;;;8.80;99.90;;;;;;5064407;28;20037;-61
2022/12/24 10:00:27;;;;;;;34.00;8.98;;;8.80;99.90;;;;;;5057338;28;20528;-61
2022/12/24 10:02:53;;;;;;;24.95;7.28;;;8.80;99.90;;;;;;5069678;28;20102;-61
2022/12/24 10:05:44;;;;;;;29.50;8.57;;;8.80;99.90;;;;;;5074066;28;20493;-61
2022/12/24 10:08:28;;;;;;;36.90;7.32;;;8.80;99.90;;;;;;5040675;28;20462;-61
2022/12/24 10:11:17;;;;;;;25.23;7.30;;;8.90;99.90;;;;;;5052265;28;20037;-61
2022/12/24 10:14:01;;;;;;;31.55;8.38;;;8.90;99.90;;;;;;5069127;28;20123;-61
2022/12/24 10:17:05;;;;;;;29.50;7.78;;;8.90;99.90;;;;;;5051889;28;20683;-61
2022/12/24 10:19:42;;;;;;;25.13;6.55;;;8.90;99.90;;;;;;5050813;28;20558;-61
2022/12/24 10:22:18;;;;;;;29.05;8.98;;;9.00;99.90;;;;;;5083134;28;20044;-61
2022/12/24 10:24:58;;;;;;;28.50;7.55;;;9.00;99.90;;;;;;5060443;28;20048;-61
2022/12/24 10:27:27;;;;;;;32.92;9.02;;;9.00;99.90;;;;;;5053776;28;20416;-61
2022/12/24 10:30:01;;;;;;;22.25;7.55;;;9.00;99.90;;;;;;5053475;28;20505;-61
2022/12/24 10:32:32;;;;;;;31.73;9.13;;;9.00;99.90;;;;;;5056233;28;20123;-61
2022/12/24 10:35:20;;;;;;;35.13;7.40;;;9.10;99.90;;;;;;5055921;28;20142;-61
2022/12/24 10:37:48;;;;;;;26.10;6.75;;;9.10;99.90;;;;;;5042701;28;20039;-61
2022/12/24 10:40:21;;;;;;;25.42;8.07;;;9.10;99.90;;;;;;5046616;28;20040;-62
2022/12/24 10:42:46;;;;;;;27.13;8.10;;;9.10;99.90;;;;;;5061397;28;20040;-61
2022/12/24 10:45:19;;;;;;;28.52;8.30;;;9.10;99.90;;;;;;5059035;28;20036;-62
2022/12/24 10:47:49;;;;;;;30.13;7.32;;;9.20;99.90;;;;;;5051275;28;20147;-61
2022/12/24 10:50:28;;;;;;;32.83;7.82;;;9.20;99.90;;;;;;5068727;28;20051;-62
2022/12/24 10:53:20;;;;;;;32.25;6.90;;;9.20;99.90;;;;;;5064634;28;20044;-62
2022/12/24 10:55:47;;;;;;;34.00;8.05;;;9.20;99.90;;;;;;5055328;28;20045;-61
2022/12/24 10:58:17;;;;;;;36.80;8.25;;;9.10;99.90;;;;;;5067687;28;20170;-61
2022/12/24 11:00:50;;;;;;;26.77;7.88;;;9.10;99.90;;;;;;5053498;28;20458;-62
2022/12/24 11:03:23;;;;;;;24.48;7.63;;;9.20;99.90;;;;;;5059416;28;20404;-61
2022/12/24 11:06:07;;;;;;;24.50;6.50;;;9.20;99.90;;;;;;5055328;28;20055;-61
2022/12/24 11:08:33;;;;;;;24.17;6.47;;;9.20;99.90;;;;;;5068557;28;20041;-61
2022/12/24 11:11:06;;;;;;;30.23;7.65;;;9.20;99.90;;;;;;5039484;28;20045;-61
2022/12/24 11:13:42;;;;;;;23.83;5.95;;;9.30;99.90;;;;;;5069623;28;20545;-60
2022/12/24 11:16:17;;;;;;;26.77;6.68;;;9.30;99.90;;;;;;5054743;28;20492;-61
2022/12/24 11:18:54;;;;;;;36.03;7.22;;;9.30;99.90;;;;;;5052918;28;20028;-61
2022/12/24 11:21:36;;;;;;;24.02;6.65;;;9.30;99.90;;;;;;5056246;28;20045;-60
2022/12/24 11:24:05;;;;;;;20.50;5.57;;;9.30;99.90;;;;;;5053268;28;20059;-61
2022/12/24 11:26:31;;;;;;;24.15;5.80;;;9.30;99.90;;;;;;5071731;28;20464;-61
2022/12/24 11:29:18;;;;;;;29.40;6.47;;;9.30;99.90;;;;;;5053402;28;20056;-62
2022/12/24 11:31:45;;;;;;;23.63;5.55;;;9.40;99.90;;;;;;5060871;28;20040;-61
2022/12/24 11:34:30;;;;;;;24.30;5.68;;;9.40;99.90;;;;;;5070833;28;20401;-61
2022/12/24 11:37:23;;;;;;;22.20;7.22;;;9.30;99.90;;;;;;5070633;28;20111;-61
2022/12/24 11:39:52;;;;;;;25.27;5.90;;;9.40;99.90;;;;;;5071023;28;20072;-61
2022/12/24 11:42:22;;;;;;;24.85;6.03;;;9.30;99.90;;;;;;5071554;28;20477;-60
2022/12/24 11:44:55;;;;;;;21.13;6.00;;;9.40;99.90;;;;;;5071986;28;20397;-61
2022/12/24 11:47:39;;;;;;;31.27;6.35;;;9.40;99.90;;;;;;5070437;28;20115;-61
2022/12/24 11:50:30;;;;;;;15.60;5.53;;;9.40;99.90;;;;;;5071521;28;20091;-61
2022/12/24 11:53:02;;;;;;;25.23;5.90;;;9.40;99.90;;;;;;5070728;28;20051;-60
2022/12/24 11:55:40;;;;;;;18.98;5.30;;;9.40;99.90;;;;;;5070611;28;20044;-60
2022/12/24 11:58:33;;;;;;;19.45;4.63;;;9.40;99.90;;;;;;5070419;28;20405;-60
2022/12/24 12:01:01;;;;;;;24.92;6.10;;;9.40;99.90;;;;;;5070668;28;20040;-61
2022/12/24 12:03:37;;;;;;;24.27;5.72;;;9.50;99.90;;;;;;5070194;28;20059;-60
2022/12/24 12:06:10;;;;;;;17.00;4.47;;;9.50;99.90;;;;;;5069454;28;20048;-61
2022/12/24 12:08:37;;;;;;;16.02;5.72;;;9.50;99.90;;;;;;5070743;28;20508;-61
2022/12/24 12:11:11;;;;;;;24.50;6.25;;;9.50;99.90;;;;;;5071239;28;20037;-61
2022/12/24 12:13:40;;;;;;;19.00;5.57;;;9.50;99.90;;;;;;5071126;28;20044;-60
2022/12/24 12:16:22;;;;;;;22.77;6.03;;;9.50;99.90;;;;;;5071539;28;20062;-61
2022/12/24 12:18:59;;;;;;;21.95;6.38;;;9.50;99.90;;;;;;5070149;28;20102;-61
2022/12/24 12:21:34;;;;;;;18.90;4.63;;;9.50;99.90;;;;;;5069604;28;20481;-61
2022/12/24 12:24:09;;;;;;;14.75;6.07;;;9.50;99.90;;;;;;5070277;28;20044;-61
2022/12/24 12:26:35;;;;;;;19.30;4.85;;;9.40;99.90;;;;;;5071469;28;20075;-62
2022/12/24 12:29:25;;;;;;;23.70;5.32;;;9.40;99.90;;;;;;5071165;28;20053;-61
2022/12/24 12:31:56;;;;;;;18.23;5.22;;;9.50;99.90;;;;;;5057220;28;20048;-61
2022/12/24 12:34:50;;;;;;;24.45;6.07;;;9.40;99.90;;;;;;5074322;28;20044;-61
2022/12/24 12:37:26;;;;;;;17.92;5.50;;;9.40;99.90;;;;;;5060481;28;20425;-61
2022/12/24 12:39:53;;;;;;;25.40;8.82;;;9.40;99.90;;;;;;5073437;28;20045;-61
2022/12/24 12:42:38;;;;;;;18.95;5.95;;;9.40;99.90;;;;;;5072598;28;20366;-61
2022/12/24 12:45:38;;;;;;;21.58;6.00;;;9.40;99.90;;;;;;5074718;28;20142;-60
2022/12/24 12:48:13;;;;;;;20.65;5.65;;;9.40;99.90;;;;;;5074430;28;20397;-61
2022/12/24 12:50:57;;;;;;;23.70;5.60;;;9.40;99.90;;;;;;5073842;28;20485;-61
2022/12/24 12:54:13;;;;;;;25.45;5.78;;;9.30;99.90;;;;;;5074548;28;20041;-61
2022/12/24 12:56:44;;;;;;;15.73;5.28;;;9.30;99.90;;;;;;5072753;28;20040;-61
2022/12/24 12:59:16;;;;;;;13.07;4.10;;;9.30;99.90;;;;;;5074433;28;20082;-61
2022/12/24 13:01:46;;;;;;;17.80;5.30;;;9.30;99.90;;;;;;5073143;28;20424;-61
2022/12/24 13:04:46;;;;;;;17.20;4.45;;;9.20;99.90;;;;;;5055956;28;20059;-61
2022/12/24 13:07:31;;;;;;;20.67;5.32;;;9.20;99.90;;;;;;5073047;28;20041;-61
2022/12/24 13:10:14;;;;;;;14.50;4.47;;;9.20;99.90;;;;;;5072362;28;20033;-61
2022/12/24 13:12:46;;;;;;;21.85;5.25;;;9.20;99.90;;;;;;5073504;28;20051;-61
2022/12/24 13:15:28;;;;;;;16.95;4.20;;;9.20;99.90;;;;;;5074142;28;20469;-61